sensor_id;sensor_type;location;lat;lon;timestamp;temperature;humidity
41664;DHT22;27353;50.906;7.248;2022-07-29T00:01:34;19.30;92.70
41664;DHT22;27353;50.906;7.248;2022-07-29T00:04:00;19.20;92.40
41664;DHT22;27353;50.906;7.248;2022-07-29T00:06:25;19.20;92.60
41664;DHT22;27353;50.906;7.248;2022-07-29T00:08:51;19.20;92.90
41664;DHT22;27353;50.906;7.248;2022-07-29T00:11:16;19.20;92.90
41664;DHT22;27353;50.906;7.248;2022-07-29T00:13:42;19.20;92.70
41664;DHT22;27353;50.906;7.248;2022-07-29T00:16:08;19.20;93.20
41664;DHT22;27353;50.906;7.248;2022-07-29T00:18:33;19.20;93.10
41664;DHT22;27353;50.906;7.248;2022-07-29T00:20:59;19.20;93.10
41664;DHT22;27353;50.906;7.248;2022-07-29T00:23:25;19.10;92.70
41664;DHT22;27353;50.906;7.248;2022-07-29T00:25:50;19.20;92.50
41664;DHT22;27353;50.906;7.248;2022-07-29T00:28:16;19.20;92.50
41664;DHT22;27353;50.906;7.248;2022-07-29T00:30:42;19.10;92.50
41664;DHT22;27353;50.906;7.248;2022-07-29T00:33:09;19.10;92.60
41664;DHT22;27353;50.906;7.248;2022-07-29T00:35:35;19.10;93.10
41664;DHT22;27353;50.906;7.248;2022-07-29T00:38:14;19.10;93.00
41664;DHT22;27353;50.906;7.248;2022-07-29T00:40:40;19.10;93.20
41664;DHT22;27353;50.906;7.248;2022-07-29T00:43:06;19.10;93.50
41664;DHT22;27353;50.906;7.248;2022-07-29T00:45:32;19.10;93.60
41664;DHT22;27353;50.906;7.248;2022-07-29T00:47:58;19.00;92.70
41664;DHT22;27353;50.906;7.248;2022-07-29T00:50:24;19.10;93.00
41664;DHT22;27353;50.906;7.248;2022-07-29T00:52:50;19.00;92.80
41664;DHT22;27353;50.906;7.248;2022-07-29T00:55:16;19.00;92.60
41664;DHT22;27353;50.906;7.248;2022-07-29T00:57:43;19.00;92.40
41664;DHT22;27353;50.906;7.248;2022-07-29T01:00:14;19.00;92.50
41664;DHT22;27353;50.906;7.248;2022-07-29T01:02:40;19.00;92.10
41664;DHT22;27353;50.906;7.248;2022-07-29T01:05:07;19.00;92.30
41664;DHT22;27353;50.906;7.248;2022-07-29T01:07:36;19.00;92.70
41664;DHT22;27353;50.906;7.248;2022-07-29T01:10:06;19.00;92.70
41664;DHT22;27353;50.906;7.248;2022-07-29T01:12:33;19.00;92.40
41664;DHT22;27353;50.906;7.248;2022-07-29T01:15:01;19.00;92.50
41664;DHT22;27353;50.906;7.248;2022-07-29T01:17:42;18.90;92.20
41664;DHT22;27353;50.906;7.248;2022-07-29T01:25:58;18.90;92.40
41664;DHT22;27353;50.906;7.248;2022-07-29T01:29:00;18.80;92.60
41664;DHT22;27353;50.906;7.248;2022-07-29T01:31:47;18.80;92.30
41664;DHT22;27353;50.906;7.248;2022-07-29T01:39:58;18.80;92.50
41664;DHT22;27353;50.906;7.248;2022-07-29T01:42:32;18.80;92.40
41664;DHT22;27353;50.906;7.248;2022-07-29T01:47:39;18.80;92.50
41664;DHT22;27353;50.906;7.248;2022-07-29T01:50:08;18.80;92.20
41664;DHT22;27353;50.906;7.248;2022-07-29T01:55:15;18.70;91.80
41664;DHT22;27353;50.906;7.248;2022-07-29T01:57:44;18.70;91.60
41664;DHT22;27353;50.906;7.248;2022-07-29T02:00:11;18.70;91.70
41664;DHT22;27353;50.906;7.248;2022-07-29T02:02:40;18.70;91.60
41664;DHT22;27353;50.906;7.248;2022-07-29T02:05:08;18.70;91.60
41664;DHT22;27353;50.906;7.248;2022-07-29T02:07:35;18.70;91.30
41664;DHT22;27353;50.906;7.248;2022-07-29T02:10:03;18.80;91.30
41664;DHT22;27353;50.906;7.248;2022-07-29T02:12:31;18.80;91.60
41664;DHT22;27353;50.906;7.248;2022-07-29T02:15:00;18.80;91.80
41664;DHT22;27353;50.906;7.248;2022-07-29T02:17:31;18.80;91.50
41664;DHT22;27353;50.906;7.248;2022-07-29T02:20:00;18.80;91.10
41664;DHT22;27353;50.906;7.248;2022-07-29T02:22:29;18.80;91.60
41664;DHT22;27353;50.906;7.248;2022-07-29T02:24:55;18.70;91.80
41664;DHT22;27353;50.906;7.248;2022-07-29T02:27:22;18.70;92.10
41664;DHT22;27353;50.906;7.248;2022-07-29T02:29:49;18.70;92.10
41664;DHT22;27353;50.906;7.248;2022-07-29T02:32:16;18.70;92.20
41664;DHT22;27353;50.906;7.248;2022-07-29T02:34:43;18.60;92.20
41664;DHT22;27353;50.906;7.248;2022-07-29T02:37:10;18.60;92.30
41664;DHT22;27353;50.906;7.248;2022-07-29T02:39:37;18.50;92.20
41664;DHT22;27353;50.906;7.248;2022-07-29T02:42:07;18.50;92.10
41664;DHT22;27353;50.906;7.248;2022-07-29T02:44:35;18.40;92.10
41664;DHT22;27353;50.906;7.248;2022-07-29T02:47:16;18.40;91.90
41664;DHT22;27353;50.906;7.248;2022-07-29T02:52:54;18.40;92.10
41664;DHT22;27353;50.906;7.248;2022-07-29T02:55:29;18.30;91.90
41664;DHT22;27353;50.906;7.248;2022-07-29T02:58:05;18.30;92.10
41664;DHT22;27353;50.906;7.248;2022-07-29T03:00:37;18.20;92.00
41664;DHT22;27353;50.906;7.248;2022-07-29T03:03:08;18.20;92.10
41664;DHT22;27353;50.906;7.248;2022-07-29T03:05:40;18.30;92.00
41664;DHT22;27353;50.906;7.248;2022-07-29T03:08:08;18.30;92.00
41664;DHT22;27353;50.906;7.248;2022-07-29T03:10:35;18.30;91.80
41664;DHT22;27353;50.906;7.248;2022-07-29T03:13:02;18.30;91.70
41664;DHT22;27353;50.906;7.248;2022-07-29T03:15:29;18.40;92.10
41664;DHT22;27353;50.906;7.248;2022-07-29T03:17:55;18.30;92.00
41664;DHT22;27353;50.906;7.248;2022-07-29T03:20:22;18.40;91.80
41664;DHT22;27353;50.906;7.248;2022-07-29T03:22:47;18.40;91.90
41664;DHT22;27353;50.906;7.248;2022-07-29T03:25:14;18.30;91.90
41664;DHT22;27353;50.906;7.248;2022-07-29T03:27:41;18.30;91.40
41664;DHT22;27353;50.906;7.248;2022-07-29T03:30:07;18.30;91.50
41664;DHT22;27353;50.906;7.248;2022-07-29T03:32:34;18.30;91.70
41664;DHT22;27353;50.906;7.248;2022-07-29T03:34:59;18.30;92.20
41664;DHT22;27353;50.906;7.248;2022-07-29T03:37:25;18.30;92.50
41664;DHT22;27353;50.906;7.248;2022-07-29T03:39:52;18.30;92.70
41664;DHT22;27353;50.906;7.248;2022-07-29T03:42:21;18.30;93.10
41664;DHT22;27353;50.906;7.248;2022-07-29T03:44:50;18.30;92.70
41664;DHT22;27353;50.906;7.248;2022-07-29T03:47:20;18.30;91.70
41664;DHT22;27353;50.906;7.248;2022-07-29T03:49:49;18.30;92.00
41664;DHT22;27353;50.906;7.248;2022-07-29T03:52:16;18.30;92.60
41664;DHT22;27353;50.906;7.248;2022-07-29T03:54:42;18.30;92.30
41664;DHT22;27353;50.906;7.248;2022-07-29T03:57:10;18.20;92.40
41664;DHT22;27353;50.906;7.248;2022-07-29T03:59:37;18.20;93.00
41664;DHT22;27353;50.906;7.248;2022-07-29T04:02:04;18.10;93.00
41664;DHT22;27353;50.906;7.248;2022-07-29T04:04:33;18.20;92.60
41664;DHT22;27353;50.906;7.248;2022-07-29T04:07:00;18.20;92.80
41664;DHT22;27353;50.906;7.248;2022-07-29T04:09:26;18.10;91.90
41664;DHT22;27353;50.906;7.248;2022-07-29T04:11:52;18.20;92.80
41664;DHT22;27353;50.906;7.248;2022-07-29T04:14:18;18.20;92.90
41664;DHT22;27353;50.906;7.248;2022-07-29T04:16:44;18.20;92.90
41664;DHT22;27353;50.906;7.248;2022-07-29T04:19:09;18.20;92.90
41664;DHT22;27353;50.906;7.248;2022-07-29T04:21:41;18.20;92.20
41664;DHT22;27353;50.906;7.248;2022-07-29T04:24:07;18.20;92.90
41664;DHT22;27353;50.906;7.248;2022-07-29T04:26:34;18.30;92.80
41664;DHT22;27353;50.906;7.248;2022-07-29T04:29:00;18.30;93.30
41664;DHT22;27353;50.906;7.248;2022-07-29T04:31:26;18.30;93.50
41664;DHT22;27353;50.906;7.248;2022-07-29T04:33:52;18.30;93.80
41664;DHT22;27353;50.906;7.248;2022-07-29T04:36:17;18.30;93.70
41664;DHT22;27353;50.906;7.248;2022-07-29T04:38:43;18.40;93.90
41664;DHT22;27353;50.906;7.248;2022-07-29T04:41:09;18.40;93.60
41664;DHT22;27353;50.906;7.248;2022-07-29T04:43:35;18.40;93.70
41664;DHT22;27353;50.906;7.248;2022-07-29T04:46:05;18.40;93.20
41664;DHT22;27353;50.906;7.248;2022-07-29T04:48:31;18.40;93.40
41664;DHT22;27353;50.906;7.248;2022-07-29T04:50:57;18.40;93.80
41664;DHT22;27353;50.906;7.248;2022-07-29T04:53:23;18.40;94.50
41664;DHT22;27353;50.906;7.248;2022-07-29T04:55:48;18.50;94.60
41664;DHT22;27353;50.906;7.248;2022-07-29T04:58:14;18.60;94.10
41664;DHT22;27353;50.906;7.248;2022-07-29T05:00:40;18.70;94.00
41664;DHT22;27353;50.906;7.248;2022-07-29T05:03:05;18.70;93.60
41664;DHT22;27353;50.906;7.248;2022-07-29T05:05:31;18.70;93.40
41664;DHT22;27353;50.906;7.248;2022-07-29T05:07:57;18.80;93.30
41664;DHT22;27353;50.906;7.248;2022-07-29T05:10:22;19.00;93.90
41664;DHT22;27353;50.906;7.248;2022-07-29T05:12:48;19.30;93.90
41664;DHT22;27353;50.906;7.248;2022-07-29T05:15:14;19.70;93.30
41664;DHT22;27353;50.906;7.248;2022-07-29T05:17:40;20.10;92.40
41664;DHT22;27353;50.906;7.248;2022-07-29T05:20:06;20.60;91.70
41664;DHT22;27353;50.906;7.248;2022-07-29T05:22:32;20.90;90.70
41664;DHT22;27353;50.906;7.248;2022-07-29T05:24:58;21.10;90.90
41664;DHT22;27353;50.906;7.248;2022-07-29T05:27:24;21.40;90.50
41664;DHT22;27353;50.906;7.248;2022-07-29T05:29:49;21.50;90.40
41664;DHT22;27353;50.906;7.248;2022-07-29T05:32:15;21.80;90.10
41664;DHT22;27353;50.906;7.248;2022-07-29T05:34:41;21.60;90.40
41664;DHT22;27353;50.906;7.248;2022-07-29T05:37:07;21.70;90.20
41664;DHT22;27353;50.906;7.248;2022-07-29T05:39:33;21.30;91.10
41664;DHT22;27353;50.906;7.248;2022-07-29T05:41:58;21.10;92.00
41664;DHT22;27353;50.906;7.248;2022-07-29T05:44:24;21.10;92.30
41664;DHT22;27353;50.906;7.248;2022-07-29T05:46:49;21.10;91.50
41664;DHT22;27353;50.906;7.248;2022-07-29T05:49:15;21.20;92.30
41664;DHT22;27353;50.906;7.248;2022-07-29T05:51:41;21.10;92.20
41664;DHT22;27353;50.906;7.248;2022-07-29T05:54:07;21.20;90.70
41664;DHT22;27353;50.906;7.248;2022-07-29T05:56:32;21.70;90.90
41664;DHT22;27353;50.906;7.248;2022-07-29T05:58:58;22.10;89.10
41664;DHT22;27353;50.906;7.248;2022-07-29T06:01:24;22.40;88.90
41664;DHT22;27353;50.906;7.248;2022-07-29T06:03:49;22.70;88.20
41664;DHT22;27353;50.906;7.248;2022-07-29T06:06:15;23.30;88.10
41664;DHT22;27353;50.906;7.248;2022-07-29T06:08:40;23.70;86.50
41664;DHT22;27353;50.906;7.248;2022-07-29T06:11:06;23.80;85.00
41664;DHT22;27353;50.906;7.248;2022-07-29T06:13:34;24.00;84.60
41664;DHT22;27353;50.906;7.248;2022-07-29T06:15:59;23.70;86.20
41664;DHT22;27353;50.906;7.248;2022-07-29T06:18:25;23.80;86.20
41664;DHT22;27353;50.906;7.248;2022-07-29T06:20:51;23.40;87.20
41664;DHT22;27353;50.906;7.248;2022-07-29T06:23:18;23.40;86.60
41664;DHT22;27353;50.906;7.248;2022-07-29T06:25:43;23.30;86.90
41664;DHT22;27353;50.906;7.248;2022-07-29T06:28:09;23.50;86.10
41664;DHT22;27353;50.906;7.248;2022-07-29T06:30:35;23.60;86.10
41664;DHT22;27353;50.906;7.248;2022-07-29T06:33:00;23.40;85.60
41664;DHT22;27353;50.906;7.248;2022-07-29T06:35:27;23.50;86.00
41664;DHT22;27353;50.906;7.248;2022-07-29T06:37:53;23.20;86.60
41664;DHT22;27353;50.906;7.248;2022-07-29T06:40:18;22.80;86.80
41664;DHT22;27353;50.906;7.248;2022-07-29T06:43:03;22.90;88.60
41664;DHT22;27353;50.906;7.248;2022-07-29T06:45:28;23.50;87.70
41664;DHT22;27353;50.906;7.248;2022-07-29T06:47:54;24.50;84.60
41664;DHT22;27353;50.906;7.248;2022-07-29T06:50:20;25.20;82.20
41664;DHT22;27353;50.906;7.248;2022-07-29T06:52:47;25.90;80.40
41664;DHT22;27353;50.906;7.248;2022-07-29T06:55:12;26.70;79.10
41664;DHT22;27353;50.906;7.248;2022-07-29T06:57:38;27.40;76.00
41664;DHT22;27353;50.906;7.248;2022-07-29T07:00:05;27.90;76.30
41664;DHT22;27353;50.906;7.248;2022-07-29T07:02:31;28.60;73.30
41664;DHT22;27353;50.906;7.248;2022-07-29T07:04:57;29.00;72.10
41664;DHT22;27353;50.906;7.248;2022-07-29T07:07:24;29.80;72.40
41664;DHT22;27353;50.906;7.248;2022-07-29T07:09:50;30.50;68.90
41664;DHT22;27353;50.906;7.248;2022-07-29T07:12:16;31.20;67.00
41664;DHT22;27353;50.906;7.248;2022-07-29T07:14:41;31.20;68.70
41664;DHT22;27353;50.906;7.248;2022-07-29T07:17:07;30.20;66.90
41664;DHT22;27353;50.906;7.248;2022-07-29T07:19:33;29.50;70.10
41664;DHT22;27353;50.906;7.248;2022-07-29T07:21:59;29.10;70.30
41664;DHT22;27353;50.906;7.248;2022-07-29T07:24:25;28.20;72.90
41664;DHT22;27353;50.906;7.248;2022-07-29T07:26:50;27.20;72.20
41664;DHT22;27353;50.906;7.248;2022-07-29T07:29:16;26.50;75.90
41664;DHT22;27353;50.906;7.248;2022-07-29T07:31:42;26.10;76.70
41664;DHT22;27353;50.906;7.248;2022-07-29T07:34:08;25.90;77.50
41664;DHT22;27353;50.906;7.248;2022-07-29T07:36:34;25.60;78.60
41664;DHT22;27353;50.906;7.248;2022-07-29T07:39:00;25.40;79.10
41664;DHT22;27353;50.906;7.248;2022-07-29T07:41:26;25.70;78.10
41664;DHT22;27353;50.906;7.248;2022-07-29T07:43:52;26.10;77.80
41664;DHT22;27353;50.906;7.248;2022-07-29T07:46:17;26.50;78.50
41664;DHT22;27353;50.906;7.248;2022-07-29T07:48:43;27.00;77.40
41664;DHT22;27353;50.906;7.248;2022-07-29T07:51:09;27.10;77.00
41664;DHT22;27353;50.906;7.248;2022-07-29T07:53:35;27.50;74.00
41664;DHT22;27353;50.906;7.248;2022-07-29T07:56:01;27.60;76.30
41664;DHT22;27353;50.906;7.248;2022-07-29T07:58:27;27.40;75.60
41664;DHT22;27353;50.906;7.248;2022-07-29T08:00:52;27.70;73.90
41664;DHT22;27353;50.906;7.248;2022-07-29T08:03:18;29.00;74.50
41664;DHT22;27353;50.906;7.248;2022-07-29T08:05:44;30.20;70.80
41664;DHT22;27353;50.906;7.248;2022-07-29T08:08:09;30.30;69.00
41664;DHT22;27353;50.906;7.248;2022-07-29T08:10:35;30.00;68.40
41664;DHT22;27353;50.906;7.248;2022-07-29T08:13:22;29.50;68.40
41664;DHT22;27353;50.906;7.248;2022-07-29T08:15:48;28.50;70.10
41664;DHT22;27353;50.906;7.248;2022-07-29T08:18:23;28.10;70.70
41664;DHT22;27353;50.906;7.248;2022-07-29T08:20:49;27.50;70.30
41664;DHT22;27353;50.906;7.248;2022-07-29T08:23:15;26.90;70.80
41664;DHT22;27353;50.906;7.248;2022-07-29T08:25:41;25.90;73.60
41664;DHT22;27353;50.906;7.248;2022-07-29T08:28:07;25.60;75.60
41664;DHT22;27353;50.906;7.248;2022-07-29T08:30:34;25.40;78.00
41664;DHT22;27353;50.906;7.248;2022-07-29T08:32:59;25.50;77.50
41664;DHT22;27353;50.906;7.248;2022-07-29T08:35:25;25.50;75.10
41664;DHT22;27353;50.906;7.248;2022-07-29T08:37:52;25.50;76.90
41664;DHT22;27353;50.906;7.248;2022-07-29T08:40:18;25.60;71.60
41664;DHT22;27353;50.906;7.248;2022-07-29T08:42:45;25.50;71.70
41664;DHT22;27353;50.906;7.248;2022-07-29T08:45:10;25.80;71.30
41664;DHT22;27353;50.906;7.248;2022-07-29T08:47:39;25.80;75.00
41664;DHT22;27353;50.906;7.248;2022-07-29T08:50:06;26.00;70.90
41664;DHT22;27353;50.906;7.248;2022-07-29T08:52:36;26.10;70.70
41664;DHT22;27353;50.906;7.248;2022-07-29T08:55:03;26.30;75.30
41664;DHT22;27353;50.906;7.248;2022-07-29T08:57:29;26.80;74.10
41664;DHT22;27353;50.906;7.248;2022-07-29T08:59:57;26.70;70.60
41664;DHT22;27353;50.906;7.248;2022-07-29T09:02:28;27.10;70.70
41664;DHT22;27353;50.906;7.248;2022-07-29T09:04:55;27.10;70.80
41664;DHT22;27353;50.906;7.248;2022-07-29T09:07:21;27.30;69.00
41664;DHT22;27353;50.906;7.248;2022-07-29T09:09:47;27.50;72.10
41664;DHT22;27353;50.906;7.248;2022-07-29T09:12:13;26.90;66.60
41664;DHT22;27353;50.906;7.248;2022-07-29T09:14:39;27.40;67.80
41664;DHT22;27353;50.906;7.248;2022-07-29T09:17:06;27.20;68.40
41664;DHT22;27353;50.906;7.248;2022-07-29T09:19:36;27.10;69.90
41664;DHT22;27353;50.906;7.248;2022-07-29T09:22:05;27.40;70.90
41664;DHT22;27353;50.906;7.248;2022-07-29T09:24:51;28.30;71.80
41664;DHT22;27353;50.906;7.248;2022-07-29T09:29:43;29.20;65.00
41664;DHT22;27353;50.906;7.248;2022-07-29T09:32:09;29.50;63.70
41664;DHT22;27353;50.906;7.248;2022-07-29T09:34:36;30.40;65.50
41664;DHT22;27353;50.906;7.248;2022-07-29T09:37:02;31.20;63.10
41664;DHT22;27353;50.906;7.248;2022-07-29T09:39:29;31.50;61.70
41664;DHT22;27353;50.906;7.248;2022-07-29T09:41:57;32.20;62.00
41664;DHT22;27353;50.906;7.248;2022-07-29T09:44:24;31.70;59.70
41664;DHT22;27353;50.906;7.248;2022-07-29T09:49:23;32.00;61.60
41664;DHT22;27353;50.906;7.248;2022-07-29T09:52:06;31.70;62.60
41664;DHT22;27353;50.906;7.248;2022-07-29T09:54:32;32.20;61.10
41664;DHT22;27353;50.906;7.248;2022-07-29T09:57:03;32.90;61.80
41664;DHT22;27353;50.906;7.248;2022-07-29T09:59:30;33.30;59.60
41664;DHT22;27353;50.906;7.248;2022-07-29T10:01:55;33.30;58.70
41664;DHT22;27353;50.906;7.248;2022-07-29T10:04:21;33.60;59.40
41664;DHT22;27353;50.906;7.248;2022-07-29T10:07:00;33.50;58.70
41664;DHT22;27353;50.906;7.248;2022-07-29T10:09:26;34.00;59.40
41664;DHT22;27353;50.906;7.248;2022-07-29T10:12:12;33.70;58.10
41664;DHT22;27353;50.906;7.248;2022-07-29T10:14:40;33.70;58.50
41664;DHT22;27353;50.906;7.248;2022-07-29T10:17:08;33.80;56.60
41664;DHT22;27353;50.906;7.248;2022-07-29T10:19:36;32.80;57.40
41664;DHT22;27353;50.906;7.248;2022-07-29T10:22:05;33.50;59.20
41664;DHT22;27353;50.906;7.248;2022-07-29T10:24:32;34.10;56.00
41664;DHT22;27353;50.906;7.248;2022-07-29T10:27:00;32.90;57.10
41664;DHT22;27353;50.906;7.248;2022-07-29T10:29:26;32.00;58.30
41664;DHT22;27353;50.906;7.248;2022-07-29T10:32:26;30.70;60.80
41664;DHT22;27353;50.906;7.248;2022-07-29T10:35:21;31.20;61.20
41664;DHT22;27353;50.906;7.248;2022-07-29T10:43:45;32.10;62.30
41664;DHT22;27353;50.906;7.248;2022-07-29T10:46:12;31.90;62.00
41664;DHT22;27353;50.906;7.248;2022-07-29T11:05:06;34.00;58.20
41664;DHT22;27353;50.906;7.248;2022-07-29T11:07:35;34.20;58.10
41664;DHT22;27353;50.906;7.248;2022-07-29T11:10:22;34.60;57.70
41664;DHT22;27353;50.906;7.248;2022-07-29T11:12:48;34.70;56.90
41664;DHT22;27353;50.906;7.248;2022-07-29T11:15:18;34.30;60.40
41664;DHT22;27353;50.906;7.248;2022-07-29T11:20:33;32.80;64.90
41664;DHT22;27353;50.906;7.248;2022-07-29T11:22:59;32.50;66.10
41664;DHT22;27353;50.906;7.248;2022-07-29T11:25:25;32.50;65.00
41664;DHT22;27353;50.906;7.248;2022-07-29T11:27:53;31.90;66.60
41664;DHT22;27353;50.906;7.248;2022-07-29T11:30:19;31.70;67.90
41664;DHT22;27353;50.906;7.248;2022-07-29T11:32:46;30.90;70.60
41664;DHT22;27353;50.906;7.248;2022-07-29T11:37:38;30.70;70.20
41664;DHT22;27353;50.906;7.248;2022-07-29T11:47:57;30.10;71.20
41664;DHT22;27353;50.906;7.248;2022-07-29T11:50:36;30.70;73.80
41664;DHT22;27353;50.906;7.248;2022-07-29T11:53:09;31.30;70.50
41664;DHT22;27353;50.906;7.248;2022-07-29T11:55:38;31.10;72.50
41664;DHT22;27353;50.906;7.248;2022-07-29T11:58:04;31.20;69.60
41664;DHT22;27353;50.906;7.248;2022-07-29T12:00:35;30.40;70.90
41664;DHT22;27353;50.906;7.248;2022-07-29T12:03:03;30.80;70.30
41664;DHT22;27353;50.906;7.248;2022-07-29T12:10:40;31.00;69.90
41664;DHT22;27353;50.906;7.248;2022-07-29T12:13:07;30.40;70.70
41664;DHT22;27353;50.906;7.248;2022-07-29T12:15:33;30.60;71.00
41664;DHT22;27353;50.906;7.248;2022-07-29T12:18:15;30.70;71.70
41664;DHT22;27353;50.906;7.248;2022-07-29T12:20:42;31.50;69.60
41664;DHT22;27353;50.906;7.248;2022-07-29T12:23:09;31.40;69.10
41664;DHT22;27353;50.906;7.248;2022-07-29T12:25:37;31.20;69.40
41664;DHT22;27353;50.906;7.248;2022-07-29T12:28:06;31.30;69.90
41664;DHT22;27353;50.906;7.248;2022-07-29T12:30:41;31.40;68.80
41664;DHT22;27353;50.906;7.248;2022-07-29T12:35:36;31.40;68.70
41664;DHT22;27353;50.906;7.248;2022-07-29T12:38:02;31.40;68.10
41664;DHT22;27353;50.906;7.248;2022-07-29T12:40:28;31.20;67.60
41664;DHT22;27353;50.906;7.248;2022-07-29T12:43:14;31.10;70.20
41664;DHT22;27353;50.906;7.248;2022-07-29T12:45:43;31.30;69.00
41664;DHT22;27353;50.906;7.248;2022-07-29T12:48:10;31.40;68.10
41664;DHT22;27353;50.906;7.248;2022-07-29T12:50:57;30.80;67.00
41664;DHT22;27353;50.906;7.248;2022-07-29T12:53:23;30.50;70.20
41664;DHT22;27353;50.906;7.248;2022-07-29T12:55:51;30.30;69.10
41664;DHT22;27353;50.906;7.248;2022-07-29T13:01:06;30.70;68.30
41664;DHT22;27353;50.906;7.248;2022-07-29T13:06:45;30.20;70.30
41664;DHT22;27353;50.906;7.248;2022-07-29T13:09:16;30.20;69.50
41664;DHT22;27353;50.906;7.248;2022-07-29T13:11:47;29.90;70.40
41664;DHT22;27353;50.906;7.248;2022-07-29T13:14:29;29.90;71.40
41664;DHT22;27353;50.906;7.248;2022-07-29T13:17:03;29.50;70.60
41664;DHT22;27353;50.906;7.248;2022-07-29T13:20:08;29.60;71.50
41664;DHT22;27353;50.906;7.248;2022-07-29T13:22:38;30.00;72.30
41664;DHT22;27353;50.906;7.248;2022-07-29T13:25:04;30.10;70.10
41664;DHT22;27353;50.906;7.248;2022-07-29T13:27:33;29.30;71.50
41664;DHT22;27353;50.906;7.248;2022-07-29T13:30:00;29.50;71.30
41664;DHT22;27353;50.906;7.248;2022-07-29T13:32:28;29.60;72.00
41664;DHT22;27353;50.906;7.248;2022-07-29T13:34:55;29.40;71.00
41664;DHT22;27353;50.906;7.248;2022-07-29T13:37:21;29.20;71.30
41664;DHT22;27353;50.906;7.248;2022-07-29T13:39:47;29.40;71.20
41664;DHT22;27353;50.906;7.248;2022-07-29T13:42:13;29.30;72.20
41664;DHT22;27353;50.906;7.248;2022-07-29T13:44:39;29.10;70.80
41664;DHT22;27353;50.906;7.248;2022-07-29T13:47:06;29.10;70.90
41664;DHT22;27353;50.906;7.248;2022-07-29T13:49:31;29.20;72.60
41664;DHT22;27353;50.906;7.248;2022-07-29T13:51:57;29.60;72.20
41664;DHT22;27353;50.906;7.248;2022-07-29T13:54:22;29.90;70.70
41664;DHT22;27353;50.906;7.248;2022-07-29T13:56:50;29.80;70.80
41664;DHT22;27353;50.906;7.248;2022-07-29T13:59:16;29.50;67.80
41664;DHT22;27353;50.906;7.248;2022-07-29T14:01:42;29.80;69.90
41664;DHT22;27353;50.906;7.248;2022-07-29T14:04:09;29.70;69.40
41664;DHT22;27353;50.906;7.248;2022-07-29T14:06:34;29.70;67.50
41664;DHT22;27353;50.906;7.248;2022-07-29T14:09:00;29.10;70.30
41664;DHT22;27353;50.906;7.248;2022-07-29T14:11:26;28.80;70.30
41664;DHT22;27353;50.906;7.248;2022-07-29T14:13:51;29.00;72.40
41664;DHT22;27353;50.906;7.248;2022-07-29T14:16:17;29.30;71.60
41664;DHT22;27353;50.906;7.248;2022-07-29T14:18:42;29.30;70.50
41664;DHT22;27353;50.906;7.248;2022-07-29T14:21:08;29.50;70.10
41664;DHT22;27353;50.906;7.248;2022-07-29T14:23:36;29.50;71.40
41664;DHT22;27353;50.906;7.248;2022-07-29T14:26:01;29.50;70.90
41664;DHT22;27353;50.906;7.248;2022-07-29T14:28:27;29.60;72.20
41664;DHT22;27353;50.906;7.248;2022-07-29T14:30:52;29.60;72.80
41664;DHT22;27353;50.906;7.248;2022-07-29T14:33:18;29.60;70.10
41664;DHT22;27353;50.906;7.248;2022-07-29T14:35:44;29.30;71.40
41664;DHT22;27353;50.906;7.248;2022-07-29T14:38:10;29.30;70.50
41664;DHT22;27353;50.906;7.248;2022-07-29T14:40:36;29.50;70.50
41664;DHT22;27353;50.906;7.248;2022-07-29T14:43:02;29.40;71.80
41664;DHT22;27353;50.906;7.248;2022-07-29T14:45:28;29.30;72.60
41664;DHT22;27353;50.906;7.248;2022-07-29T14:47:54;29.30;71.30
41664;DHT22;27353;50.906;7.248;2022-07-29T14:50:20;29.30;71.40
41664;DHT22;27353;50.906;7.248;2022-07-29T14:52:46;29.20;70.20
41664;DHT22;27353;50.906;7.248;2022-07-29T14:55:12;29.30;71.90
41664;DHT22;27353;50.906;7.248;2022-07-29T14:57:37;29.10;71.10
41664;DHT22;27353;50.906;7.248;2022-07-29T15:00:04;29.10;72.70
41664;DHT22;27353;50.906;7.248;2022-07-29T15:02:31;28.90;71.90
41664;DHT22;27353;50.906;7.248;2022-07-29T15:04:56;28.50;71.20
41664;DHT22;27353;50.906;7.248;2022-07-29T15:07:22;28.20;73.90
41664;DHT22;27353;50.906;7.248;2022-07-29T15:09:47;28.00;73.20
41664;DHT22;27353;50.906;7.248;2022-07-29T15:12:13;27.80;73.40
41664;DHT22;27353;50.906;7.248;2022-07-29T15:14:39;27.60;72.80
41664;DHT22;27353;50.906;7.248;2022-07-29T15:17:04;27.60;73.80
41664;DHT22;27353;50.906;7.248;2022-07-29T15:19:30;27.60;75.10
41664;DHT22;27353;50.906;7.248;2022-07-29T15:21:55;27.50;74.10
41664;DHT22;27353;50.906;7.248;2022-07-29T15:24:21;27.60;76.00
41664;DHT22;27353;50.906;7.248;2022-07-29T15:26:47;27.60;75.10
41664;DHT22;27353;50.906;7.248;2022-07-29T15:29:13;27.70;75.60
41664;DHT22;27353;50.906;7.248;2022-07-29T15:31:39;27.90;76.10
41664;DHT22;27353;50.906;7.248;2022-07-29T15:34:05;27.90;75.30
41664;DHT22;27353;50.906;7.248;2022-07-29T15:36:31;27.90;75.70
41664;DHT22;27353;50.906;7.248;2022-07-29T15:38:56;27.80;75.40
41664;DHT22;27353;50.906;7.248;2022-07-29T15:41:22;27.80;75.70
41664;DHT22;27353;50.906;7.248;2022-07-29T15:43:48;27.70;75.40
41664;DHT22;27353;50.906;7.248;2022-07-29T15:46:16;27.90;75.50
41664;DHT22;27353;50.906;7.248;2022-07-29T15:49:01;27.80;74.80
41664;DHT22;27353;50.906;7.248;2022-07-29T15:51:27;27.80;73.90
41664;DHT22;27353;50.906;7.248;2022-07-29T15:53:53;27.70;75.30
41664;DHT22;27353;50.906;7.248;2022-07-29T15:56:19;27.70;74.90
41664;DHT22;27353;50.906;7.248;2022-07-29T15:58:45;27.70;74.80
41664;DHT22;27353;50.906;7.248;2022-07-29T16:01:10;27.60;74.20
41664;DHT22;27353;50.906;7.248;2022-07-29T16:03:36;27.60;74.20
41664;DHT22;27353;50.906;7.248;2022-07-29T16:06:02;27.50;75.00
41664;DHT22;27353;50.906;7.248;2022-07-29T16:08:28;27.50;74.80
41664;DHT22;27353;50.906;7.248;2022-07-29T16:10:53;27.40;75.10
41664;DHT22;27353;50.906;7.248;2022-07-29T16:13:19;27.40;74.40
41664;DHT22;27353;50.906;7.248;2022-07-29T16:15:45;27.40;75.40
41664;DHT22;27353;50.906;7.248;2022-07-29T16:18:10;27.30;74.90
41664;DHT22;27353;50.906;7.248;2022-07-29T16:20:38;27.20;75.70
41664;DHT22;27353;50.906;7.248;2022-07-29T16:23:04;27.10;78.50
41664;DHT22;27353;50.906;7.248;2022-07-29T16:25:30;27.00;77.30
41664;DHT22;27353;50.906;7.248;2022-07-29T16:27:56;26.80;77.50
41664;DHT22;27353;50.906;7.248;2022-07-29T16:30:21;26.60;76.30
41664;DHT22;27353;50.906;7.248;2022-07-29T16:32:47;26.50;77.20
41664;DHT22;27353;50.906;7.248;2022-07-29T16:35:13;26.60;78.00
41664;DHT22;27353;50.906;7.248;2022-07-29T16:37:39;26.50;77.00
41664;DHT22;27353;50.906;7.248;2022-07-29T16:40:06;26.40;76.80
41664;DHT22;27353;50.906;7.248;2022-07-29T16:42:33;26.40;77.20
41664;DHT22;27353;50.906;7.248;2022-07-29T16:44:59;26.30;78.00
41664;DHT22;27353;50.906;7.248;2022-07-29T16:47:25;26.20;78.10